sensor_id;sensor_type;location;lat;lon;timestamp;P1;durP1;ratioP1;P2;durP2;ratioP2
82930;SDS011;72705;53.346;10.248;2023-12-04T00:01:52;99.70;;;31.98;;
82930;SDS011;72705;53.346;10.248;2023-12-04T00:04:18;88.95;;;26.63;;
82930;SDS011;72705;53.346;10.248;2023-12-04T00:06:43;102.05;;;29.20;;
82930;SDS011;72705;53.346;10.248;2023-12-04T00:09:08;109.50;;;31.67;;
82930;SDS011;72705;53.346;10.248;2023-12-04T00:11:34;108.75;;;31.73;;
82930;SDS011;72705;53.346;10.248;2023-12-04T00:13:59;105.32;;;30.70;;
82930;SDS011;72705;53.346;10.248;2023-12-04T00:16:27;96.85;;;31.58;;
82930;SDS011;72705;53.346;10.248;2023-12-04T00:18:52;98.72;;;32.63;;
82930;SDS011;72705;53.346;10.248;2023-12-04T00:21:19;88.65;;;26.83;;
82930;SDS011;72705;53.346;10.248;2023-12-04T00:23:44;85.22;;;27.80;;
82930;SDS011;72705;53.346;10.248;2023-12-04T00:26:09;90.97;;;29.00;;
82930;SDS011;72705;53.346;10.248;2023-12-04T00:28:39;92.80;;;29.75;;
82930;SDS011;72705;53.346;10.248;2023-12-04T00:31:04;99.10;;;30.95;;
82930;SDS011;72705;53.346;10.248;2023-12-04T00:33:30;90.18;;;28.80;;
82930;SDS011;72705;53.346;10.248;2023-12-04T00:38:27;75.85;;;24.60;;
82930;SDS011;72705;53.346;10.248;2023-12-04T00:40:53;78.27;;;25.50;;
82930;SDS011;72705;53.346;10.248;2023-12-04T00:43:18;68.45;;;25.27;;
82930;SDS011;72705;53.346;10.248;2023-12-04T00:45:44;83.07;;;27.77;;
82930;SDS011;72705;53.346;10.248;2023-12-04T00:48:10;77.65;;;26.63;;
82930;SDS011;72705;53.346;10.248;2023-12-04T00:50:35;97.28;;;36.05;;
82930;SDS011;72705;53.346;10.248;2023-12-04T00:53:00;94.15;;;30.50;;
82930;SDS011;72705;53.346;10.248;2023-12-04T00:55:26;82.03;;;26.70;;
82930;SDS011;72705;53.346;10.248;2023-12-04T00:57:51;84.40;;;27.63;;
82930;SDS011;72705;53.346;10.248;2023-12-04T01:00:17;83.20;;;27.60;;
82930;SDS011;72705;53.346;10.248;2023-12-04T01:02:44;87.40;;;26.50;;
82930;SDS011;72705;53.346;10.248;2023-12-04T01:05:10;92.82;;;27.10;;
82930;SDS011;72705;53.346;10.248;2023-12-04T01:07:35;73.22;;;25.35;;
82930;SDS011;72705;53.346;10.248;2023-12-04T01:10:01;78.57;;;26.90;;
82930;SDS011;72705;53.346;10.248;2023-12-04T01:12:26;69.90;;;24.08;;
82930;SDS011;72705;53.346;10.248;2023-12-04T01:14:52;77.13;;;26.65;;
82930;SDS011;72705;53.346;10.248;2023-12-04T01:17:17;88.10;;;27.95;;
82930;SDS011;72705;53.346;10.248;2023-12-04T01:19:43;89.13;;;26.58;;
82930;SDS011;72705;53.346;10.248;2023-12-04T01:22:08;77.10;;;26.00;;
82930;SDS011;72705;53.346;10.248;2023-12-04T01:24:37;92.65;;;26.92;;
82930;SDS011;72705;53.346;10.248;2023-12-04T01:29:28;71.93;;;22.67;;
82930;SDS011;72705;53.346;10.248;2023-12-04T01:31:54;73.15;;;21.50;;
82930;SDS011;72705;53.346;10.248;2023-12-04T01:34:19;96.30;;;30.07;;
82930;SDS011;72705;53.346;10.248;2023-12-04T01:36:44;80.80;;;26.17;;
82930;SDS011;72705;53.346;10.248;2023-12-04T01:39:10;91.85;;;28.67;;
82930;SDS011;72705;53.346;10.248;2023-12-04T01:41:35;63.28;;;24.85;;
82930;SDS011;72705;53.346;10.248;2023-12-04T01:44:01;75.03;;;25.43;;
82930;SDS011;72705;53.346;10.248;2023-12-04T01:49:02;74.60;;;25.55;;
82930;SDS011;72705;53.346;10.248;2023-12-04T01:54:01;76.72;;;25.38;;
82930;SDS011;72705;53.346;10.248;2023-12-04T01:56:36;79.45;;;26.20;;
82930;SDS011;72705;53.346;10.248;2023-12-04T01:59:01;102.18;;;33.85;;
82930;SDS011;72705;53.346;10.248;2023-12-04T02:01:27;91.13;;;29.17;;
82930;SDS011;72705;53.346;10.248;2023-12-04T02:03:53;81.32;;;27.75;;
82930;SDS011;72705;53.346;10.248;2023-12-04T02:06:19;85.35;;;25.80;;
82930;SDS011;72705;53.346;10.248;2023-12-04T02:08:50;90.82;;;28.45;;
82930;SDS011;72705;53.346;10.248;2023-12-04T02:11:16;65.80;;;23.23;;
82930;SDS011;72705;53.346;10.248;2023-12-04T02:13:41;89.72;;;29.15;;
82930;SDS011;72705;53.346;10.248;2023-12-04T02:18:40;84.45;;;27.20;;
82930;SDS011;72705;53.346;10.248;2023-12-04T02:21:07;88.90;;;26.50;;
82930;SDS011;72705;53.346;10.248;2023-12-04T02:23:40;89.82;;;28.63;;
82930;SDS011;72705;53.346;10.248;2023-12-04T02:26:07;87.18;;;29.05;;
82930;SDS011;72705;53.346;10.248;2023-12-04T02:28:35;78.45;;;25.45;;
82930;SDS011;72705;53.346;10.248;2023-12-04T02:31:03;74.45;;;24.55;;
82930;SDS011;72705;53.346;10.248;2023-12-04T02:33:31;73.10;;;24.10;;
82930;SDS011;72705;53.346;10.248;2023-12-04T02:35:58;67.10;;;22.63;;
82930;SDS011;72705;53.346;10.248;2023-12-04T02:41:04;80.47;;;25.38;;
82930;SDS011;72705;53.346;10.248;2023-12-04T02:43:30;82.57;;;27.17;;
82930;SDS011;72705;53.346;10.248;2023-12-04T02:45:55;70.25;;;24.30;;
82930;SDS011;72705;53.346;10.248;2023-12-04T02:48:21;71.38;;;25.35;;
82930;SDS011;72705;53.346;10.248;2023-12-04T02:50:46;84.40;;;25.47;;
82930;SDS011;72705;53.346;10.248;2023-12-04T02:53:11;66.40;;;24.17;;
82930;SDS011;72705;53.346;10.248;2023-12-04T02:55:38;83.10;;;24.63;;
82930;SDS011;72705;53.346;10.248;2023-12-04T02:58:03;69.15;;;26.48;;
82930;SDS011;72705;53.346;10.248;2023-12-04T03:00:29;76.38;;;25.67;;
82930;SDS011;72705;53.346;10.248;2023-12-04T03:02:55;75.22;;;28.33;;
82930;SDS011;72705;53.346;10.248;2023-12-04T03:05:20;73.18;;;27.58;;
82930;SDS011;72705;53.346;10.248;2023-12-04T03:07:46;77.80;;;26.38;;
82930;SDS011;72705;53.346;10.248;2023-12-04T03:10:14;63.42;;;22.63;;
82930;SDS011;72705;53.346;10.248;2023-12-04T03:12:39;76.10;;;26.38;;
82930;SDS011;72705;53.346;10.248;2023-12-04T03:15:07;66.20;;;22.53;;
82930;SDS011;72705;53.346;10.248;2023-12-04T03:17:32;68.00;;;22.50;;
82930;SDS011;72705;53.346;10.248;2023-12-04T03:19:58;75.60;;;23.67;;
82930;SDS011;72705;53.346;10.248;2023-12-04T03:22:23;74.85;;;22.92;;
82930;SDS011;72705;53.346;10.248;2023-12-04T03:24:49;60.83;;;19.52;;
82930;SDS011;72705;53.346;10.248;2023-12-04T03:27:14;63.55;;;21.02;;
82930;SDS011;72705;53.346;10.248;2023-12-04T03:29:39;67.22;;;21.02;;
82930;SDS011;72705;53.346;10.248;2023-12-04T03:32:05;55.30;;;19.63;;
82930;SDS011;72705;53.346;10.248;2023-12-04T03:34:36;62.03;;;23.05;;
82930;SDS011;72705;53.346;10.248;2023-12-04T03:37:01;64.85;;;23.15;;
82930;SDS011;72705;53.346;10.248;2023-12-04T03:39:28;73.72;;;22.48;;
82930;SDS011;72705;53.346;10.248;2023-12-04T03:41:54;69.45;;;19.85;;
82930;SDS011;72705;53.346;10.248;2023-12-04T03:44:23;61.90;;;22.40;;
82930;SDS011;72705;53.346;10.248;2023-12-04T03:46:48;61.13;;;20.73;;
82930;SDS011;72705;53.346;10.248;2023-12-04T03:49:23;59.70;;;20.83;;
82930;SDS011;72705;53.346;10.248;2023-12-04T03:51:48;68.25;;;22.33;;
82930;SDS011;72705;53.346;10.248;2023-12-04T03:54:14;65.60;;;22.55;;
82930;SDS011;72705;53.346;10.248;2023-12-04T03:56:44;75.80;;;24.03;;
82930;SDS011;72705;53.346;10.248;2023-12-04T03:59:10;67.22;;;21.48;;
82930;SDS011;72705;53.346;10.248;2023-12-04T04:01:40;70.32;;;21.33;;
82930;SDS011;72705;53.346;10.248;2023-12-04T04:04:05;71.97;;;24.33;;
82930;SDS011;72705;53.346;10.248;2023-12-04T04:06:40;68.13;;;23.23;;
82930;SDS011;72705;53.346;10.248;2023-12-04T04:09:06;65.15;;;20.55;;
82930;SDS011;72705;53.346;10.248;2023-12-04T04:11:31;68.77;;;24.40;;
82930;SDS011;72705;53.346;10.248;2023-12-04T04:13:57;58.47;;;20.65;;
82930;SDS011;72705;53.346;10.248;2023-12-04T04:16:24;73.87;;;24.67;;
82930;SDS011;72705;53.346;10.248;2023-12-04T04:18:49;75.15;;;23.92;;
82930;SDS011;72705;53.346;10.248;2023-12-04T04:21:15;68.93;;;21.83;;
82930;SDS011;72705;53.346;10.248;2023-12-04T04:23:40;63.07;;;21.10;;
82930;SDS011;72705;53.346;10.248;2023-12-04T04:26:06;75.77;;;23.83;;
82930;SDS011;72705;53.346;10.248;2023-12-04T04:28:32;68.50;;;23.73;;
82930;SDS011;72705;53.346;10.248;2023-12-04T04:30:57;59.60;;;19.58;;
82930;SDS011;72705;53.346;10.248;2023-12-04T04:33:23;69.97;;;23.45;;
82930;SDS011;72705;53.346;10.248;2023-12-04T04:35:48;70.13;;;23.13;;
82930;SDS011;72705;53.346;10.248;2023-12-04T04:38:14;67.67;;;22.17;;
82930;SDS011;72705;53.346;10.248;2023-12-04T04:40:39;57.85;;;20.50;;
82930;SDS011;72705;53.346;10.248;2023-12-04T04:43:07;70.85;;;22.63;;
82930;SDS011;72705;53.346;10.248;2023-12-04T04:45:34;69.93;;;22.80;;
82930;SDS011;72705;53.346;10.248;2023-12-04T04:47:59;56.42;;;22.48;;
82930;SDS011;72705;53.346;10.248;2023-12-04T04:50:26;69.07;;;22.60;;
82930;SDS011;72705;53.346;10.248;2023-12-04T04:52:52;67.70;;;23.30;;
82930;SDS011;72705;53.346;10.248;2023-12-04T04:55:17;64.35;;;23.77;;
82930;SDS011;72705;53.346;10.248;2023-12-04T04:57:43;68.00;;;23.15;;
82930;SDS011;72705;53.346;10.248;2023-12-04T05:00:08;72.50;;;26.70;;
82930;SDS011;72705;53.346;10.248;2023-12-04T05:02:34;70.18;;;24.50;;
82930;SDS011;72705;53.346;10.248;2023-12-04T05:05:02;64.15;;;24.38;;
82930;SDS011;72705;53.346;10.248;2023-12-04T05:07:28;54.15;;;19.55;;
82930;SDS011;72705;53.346;10.248;2023-12-04T05:09:56;68.15;;;24.30;;
82930;SDS011;72705;53.346;10.248;2023-12-04T05:12:21;57.85;;;23.60;;
82930;SDS011;72705;53.346;10.248;2023-12-04T05:14:46;58.27;;;19.77;;
82930;SDS011;72705;53.346;10.248;2023-12-04T05:17:21;67.10;;;19.77;;
82930;SDS011;72705;53.346;10.248;2023-12-04T05:19:46;52.10;;;19.08;;
82930;SDS011;72705;53.346;10.248;2023-12-04T05:22:11;60.17;;;22.20;;
82930;SDS011;72705;53.346;10.248;2023-12-04T05:24:37;58.33;;;20.98;;
82930;SDS011;72705;53.346;10.248;2023-12-04T05:27:02;59.40;;;22.02;;
82930;SDS011;72705;53.346;10.248;2023-12-04T05:29:28;53.92;;;21.55;;
82930;SDS011;72705;53.346;10.248;2023-12-04T05:31:53;43.13;;;16.40;;
82930;SDS011;72705;53.346;10.248;2023-12-04T05:34:18;53.50;;;16.60;;
82930;SDS011;72705;53.346;10.248;2023-12-04T05:37:02;54.47;;;19.40;;
82930;SDS011;72705;53.346;10.248;2023-12-04T05:39:29;56.92;;;20.65;;
82930;SDS011;72705;53.346;10.248;2023-12-04T05:42:00;65.03;;;20.48;;
82930;SDS011;72705;53.346;10.248;2023-12-04T05:44:26;66.75;;;22.48;;
82930;SDS011;72705;53.346;10.248;2023-12-04T05:46:51;58.60;;;21.38;;
82930;SDS011;72705;53.346;10.248;2023-12-04T05:49:17;67.13;;;23.92;;
82930;SDS011;72705;53.346;10.248;2023-12-04T05:51:43;64.88;;;22.50;;
82930;SDS011;72705;53.346;10.248;2023-12-04T05:54:09;62.17;;;22.58;;
82930;SDS011;72705;53.346;10.248;2023-12-04T05:56:38;59.28;;;21.60;;
82930;SDS011;72705;53.346;10.248;2023-12-04T05:59:04;61.33;;;20.25;;
82930;SDS011;72705;53.346;10.248;2023-12-04T06:01:29;55.50;;;18.63;;
82930;SDS011;72705;53.346;10.248;2023-12-04T06:03:56;51.88;;;19.08;;
82930;SDS011;72705;53.346;10.248;2023-12-04T06:06:22;65.80;;;22.13;;
82930;SDS011;72705;53.346;10.248;2023-12-04T06:08:47;66.40;;;22.52;;
82930;SDS011;72705;53.346;10.248;2023-12-04T06:11:13;68.82;;;22.60;;
82930;SDS011;72705;53.346;10.248;2023-12-04T06:13:38;44.67;;;17.45;;
82930;SDS011;72705;53.346;10.248;2023-12-04T06:16:05;73.57;;;23.67;;
82930;SDS011;72705;53.346;10.248;2023-12-04T06:18:31;73.82;;;24.40;;
82930;SDS011;72705;53.346;10.248;2023-12-04T06:20:56;79.27;;;26.73;;
82930;SDS011;72705;53.346;10.248;2023-12-04T06:23:21;71.35;;;21.33;;
82930;SDS011;72705;53.346;10.248;2023-12-04T06:25:47;71.07;;;23.58;;
82930;SDS011;72705;53.346;10.248;2023-12-04T06:28:13;63.25;;;19.75;;
82930;SDS011;72705;53.346;10.248;2023-12-04T06:30:40;72.43;;;24.00;;
82930;SDS011;72705;53.346;10.248;2023-12-04T06:33:06;83.63;;;27.70;;
82930;SDS011;72705;53.346;10.248;2023-12-04T06:35:32;57.13;;;21.30;;
82930;SDS011;72705;53.346;10.248;2023-12-04T06:37:58;71.82;;;23.98;;
82930;SDS011;72705;53.346;10.248;2023-12-04T06:40:31;66.45;;;22.70;;
82930;SDS011;72705;53.346;10.248;2023-12-04T06:42:57;72.28;;;26.38;;
82930;SDS011;72705;53.346;10.248;2023-12-04T06:45:23;71.80;;;24.90;;
82930;SDS011;72705;53.346;10.248;2023-12-04T06:47:48;57.47;;;18.10;;
82930;SDS011;72705;53.346;10.248;2023-12-04T06:50:15;62.08;;;18.58;;
82930;SDS011;72705;53.346;10.248;2023-12-04T06:52:41;80.18;;;28.33;;
82930;SDS011;72705;53.346;10.248;2023-12-04T06:55:07;51.30;;;19.85;;
82930;SDS011;72705;53.346;10.248;2023-12-04T06:57:33;85.57;;;28.65;;
82930;SDS011;72705;53.346;10.248;2023-12-04T06:59:59;69.40;;;23.48;;
82930;SDS011;72705;53.346;10.248;2023-12-04T07:02:24;74.20;;;24.02;;
82930;SDS011;72705;53.346;10.248;2023-12-04T07:04:49;81.45;;;24.40;;
82930;SDS011;72705;53.346;10.248;2023-12-04T07:07:15;70.97;;;25.58;;
82930;SDS011;72705;53.346;10.248;2023-12-04T07:09:41;69.25;;;23.15;;
82930;SDS011;72705;53.346;10.248;2023-12-04T07:12:06;74.97;;;23.75;;
82930;SDS011;72705;53.346;10.248;2023-12-04T07:14:32;84.60;;;26.38;;
82930;SDS011;72705;53.346;10.248;2023-12-04T07:16:57;76.60;;;24.55;;
82930;SDS011;72705;53.346;10.248;2023-12-04T07:19:24;92.65;;;28.25;;
82930;SDS011;72705;53.346;10.248;2023-12-04T07:21:50;70.30;;;22.27;;
82930;SDS011;72705;53.346;10.248;2023-12-04T07:24:16;69.35;;;22.45;;
82930;SDS011;72705;53.346;10.248;2023-12-04T07:26:42;68.82;;;24.98;;
82930;SDS011;72705;53.346;10.248;2023-12-04T07:29:07;66.80;;;21.63;;
82930;SDS011;72705;53.346;10.248;2023-12-04T07:31:33;71.55;;;24.17;;
82930;SDS011;72705;53.346;10.248;2023-12-04T07:33:59;79.50;;;24.45;;
82930;SDS011;72705;53.346;10.248;2023-12-04T07:36:26;68.82;;;24.52;;
82930;SDS011;72705;53.346;10.248;2023-12-04T07:38:52;63.95;;;22.38;;
82930;SDS011;72705;53.346;10.248;2023-12-04T07:41:20;67.40;;;23.13;;
82930;SDS011;72705;53.346;10.248;2023-12-04T07:43:46;64.30;;;23.55;;
82930;SDS011;72705;53.346;10.248;2023-12-04T07:46:11;66.30;;;23.40;;
82930;SDS011;72705;53.346;10.248;2023-12-04T07:48:41;69.82;;;22.58;;
82930;SDS011;72705;53.346;10.248;2023-12-04T07:51:07;65.95;;;22.20;;
82930;SDS011;72705;53.346;10.248;2023-12-04T07:53:35;66.10;;;20.13;;
82930;SDS011;72705;53.346;10.248;2023-12-04T07:56:01;61.05;;;21.83;;
82930;SDS011;72705;53.346;10.248;2023-12-04T07:58:36;64.00;;;23.83;;
82930;SDS011;72705;53.346;10.248;2023-12-04T08:01:05;72.72;;;22.17;;
82930;SDS011;72705;53.346;10.248;2023-12-04T08:03:31;70.50;;;24.10;;
82930;SDS011;72705;53.346;10.248;2023-12-04T08:05:57;72.47;;;23.73;;
82930;SDS011;72705;53.346;10.248;2023-12-04T08:08:23;50.42;;;21.48;;
82930;SDS011;72705;53.346;10.248;2023-12-04T08:10:49;72.15;;;21.67;;
82930;SDS011;72705;53.346;10.248;2023-12-04T08:13:15;62.58;;;21.88;;
82930;SDS011;72705;53.346;10.248;2023-12-04T08:15:41;74.35;;;22.30;;
82930;SDS011;72705;53.346;10.248;2023-12-04T08:18:06;76.00;;;28.05;;
82930;SDS011;72705;53.346;10.248;2023-12-04T08:20:32;69.87;;;22.77;;
82930;SDS011;72705;53.346;10.248;2023-12-04T08:22:57;61.53;;;21.40;;
82930;SDS011;72705;53.346;10.248;2023-12-04T08:25:23;73.47;;;24.50;;
82930;SDS011;72705;53.346;10.248;2023-12-04T08:27:48;74.77;;;23.07;;
82930;SDS011;72705;53.346;10.248;2023-12-04T08:30:14;65.53;;;21.95;;
82930;SDS011;72705;53.346;10.248;2023-12-04T08:32:40;74.28;;;23.23;;
82930;SDS011;72705;53.346;10.248;2023-12-04T08:35:05;72.80;;;27.80;;
82930;SDS011;72705;53.346;10.248;2023-12-04T08:37:31;81.95;;;26.02;;
82930;SDS011;72705;53.346;10.248;2023-12-04T08:39:57;78.15;;;24.65;;
82930;SDS011;72705;53.346;10.248;2023-12-04T08:42:22;67.30;;;22.83;;
82930;SDS011;72705;53.346;10.248;2023-12-04T08:44:47;75.07;;;22.13;;
82930;SDS011;72705;53.346;10.248;2023-12-04T08:47:13;61.28;;;22.85;;
82930;SDS011;72705;53.346;10.248;2023-12-04T08:49:39;70.50;;;24.23;;
82930;SDS011;72705;53.346;10.248;2023-12-04T08:52:06;63.80;;;21.63;;
82930;SDS011;72705;53.346;10.248;2023-12-04T08:54:34;66.38;;;25.38;;
82930;SDS011;72705;53.346;10.248;2023-12-04T08:57:00;56.70;;;18.80;;
82930;SDS011;72705;53.346;10.248;2023-12-04T08:59:26;62.22;;;22.08;;
82930;SDS011;72705;53.346;10.248;2023-12-04T09:01:52;91.80;;;31.77;;
82930;SDS011;72705;53.346;10.248;2023-12-04T09:04:18;56.90;;;19.33;;
82930;SDS011;72705;53.346;10.248;2023-12-04T09:06:43;78.55;;;29.67;;
82930;SDS011;72705;53.346;10.248;2023-12-04T09:09:09;69.00;;;26.63;;
82930;SDS011;72705;53.346;10.248;2023-12-04T09:11:34;71.97;;;26.60;;
82930;SDS011;72705;53.346;10.248;2023-12-04T09:13:59;70.82;;;24.45;;
82930;SDS011;72705;53.346;10.248;2023-12-04T09:16:28;77.43;;;26.23;;
82930;SDS011;72705;53.346;10.248;2023-12-04T09:18:53;56.63;;;20.40;;
82930;SDS011;72705;53.346;10.248;2023-12-04T09:21:19;66.78;;;21.63;;
82930;SDS011;72705;53.346;10.248;2023-12-04T09:23:51;55.28;;;21.35;;
82930;SDS011;72705;53.346;10.248;2023-12-04T09:26:18;67.72;;;25.75;;
82930;SDS011;72705;53.346;10.248;2023-12-04T09:28:45;71.90;;;28.45;;
82930;SDS011;72705;53.346;10.248;2023-12-04T09:31:13;55.40;;;20.75;;
82930;SDS011;72705;53.346;10.248;2023-12-04T09:33:41;55.53;;;18.88;;
82930;SDS011;72705;53.346;10.248;2023-12-04T09:36:13;77.85;;;25.58;;
82930;SDS011;72705;53.346;10.248;2023-12-04T09:38:39;73.25;;;25.17;;
82930;SDS011;72705;53.346;10.248;2023-12-04T09:41:04;66.40;;;22.88;;
82930;SDS011;72705;53.346;10.248;2023-12-04T09:43:32;59.67;;;21.92;;
82930;SDS011;72705;53.346;10.248;2023-12-04T09:45:58;58.47;;;21.17;;
82930;SDS011;72705;53.346;10.248;2023-12-04T09:48:25;58.03;;;20.90;;
82930;SDS011;72705;53.346;10.248;2023-12-04T09:50:51;56.30;;;20.15;;
82930;SDS011;72705;53.346;10.248;2023-12-04T09:53:22;36.75;;;15.63;;
82930;SDS011;72705;53.346;10.248;2023-12-04T09:55:51;54.05;;;21.45;;
82930;SDS011;72705;53.346;10.248;2023-12-04T09:58:19;64.53;;;23.23;;
82930;SDS011;72705;53.346;10.248;2023-12-04T10:00:46;54.65;;;21.83;;
82930;SDS011;72705;53.346;10.248;2023-12-04T10:03:12;66.95;;;22.63;;
82930;SDS011;72705;53.346;10.248;2023-12-04T10:05:43;57.90;;;19.30;;
82930;SDS011;72705;53.346;10.248;2023-12-04T10:08:10;57.05;;;21.42;;
82930;SDS011;72705;53.346;10.248;2023-12-04T10:10:35;49.35;;;22.42;;
82930;SDS011;72705;53.346;10.248;2023-12-04T10:13:01;49.95;;;18.85;;
82930;SDS011;72705;53.346;10.248;2023-12-04T10:15:30;53.57;;;20.43;;
82930;SDS011;72705;53.346;10.248;2023-12-04T10:17:56;54.95;;;21.73;;
82930;SDS011;72705;53.346;10.248;2023-12-04T10:20:21;58.88;;;21.75;;
82930;SDS011;72705;53.346;10.248;2023-12-04T10:22:59;49.22;;;18.92;;
82930;SDS011;72705;53.346;10.248;2023-12-04T10:28:08;62.85;;;22.23;;
82930;SDS011;72705;53.346;10.248;2023-12-04T10:30:39;56.72;;;22.00;;
82930;SDS011;72705;53.346;10.248;2023-12-04T10:33:05;56.25;;;21.45;;
82930;SDS011;72705;53.346;10.248;2023-12-04T10:35:32;46.20;;;17.55;;
82930;SDS011;72705;53.346;10.248;2023-12-04T10:38:01;48.13;;;20.30;;
82930;SDS011;72705;53.346;10.248;2023-12-04T10:40:30;62.17;;;22.27;;
82930;SDS011;72705;53.346;10.248;2023-12-04T10:45:45;46.72;;;17.25;;
82930;SDS011;72705;53.346;10.248;2023-12-04T10:48:24;52.15;;;19.65;;
82930;SDS011;72705;53.346;10.248;2023-12-04T10:50:49;37.30;;;11.90;;
82930;SDS011;72705;53.346;10.248;2023-12-04T10:53:16;50.20;;;22.83;;
82930;SDS011;72705;53.346;10.248;2023-12-04T10:55:44;59.70;;;24.55;;
82930;SDS011;72705;53.346;10.248;2023-12-04T10:58:15;54.03;;;20.45;;
82930;SDS011;72705;53.346;10.248;2023-12-04T11:00:46;59.63;;;21.42;;
82930;SDS011;72705;53.346;10.248;2023-12-04T11:03:20;57.83;;;19.17;;
82930;SDS011;72705;53.346;10.248;2023-12-04T11:05:55;49.00;;;19.00;;
82930;SDS011;72705;53.346;10.248;2023-12-04T11:08:33;48.63;;;18.52;;
82930;SDS011;72705;53.346;10.248;2023-12-04T11:11:04;41.05;;;16.80;;
82930;SDS011;72705;53.346;10.248;2023-12-04T11:13:34;53.30;;;21.17;;
82930;SDS011;72705;53.346;10.248;2023-12-04T11:19:14;43.58;;;18.27;;
82930;SDS011;72705;53.346;10.248;2023-12-04T11:22:00;49.30;;;17.75;;
82930;SDS011;72705;53.346;10.248;2023-12-04T11:24:27;34.38;;;14.35;;
82930;SDS011;72705;53.346;10.248;2023-12-04T11:26:53;49.88;;;22.10;;
82930;SDS011;72705;53.346;10.248;2023-12-04T11:29:19;54.35;;;20.00;;
82930;SDS011;72705;53.346;10.248;2023-12-04T11:31:52;50.15;;;20.70;;
82930;SDS011;72705;53.346;10.248;2023-12-04T11:34:24;53.00;;;20.30;;
82930;SDS011;72705;53.346;10.248;2023-12-04T11:36:50;48.15;;;19.15;;
82930;SDS011;72705;53.346;10.248;2023-12-04T11:39:15;46.08;;;18.77;;
82930;SDS011;72705;53.346;10.248;2023-12-04T11:41:41;48.13;;;18.23;;
82930;SDS011;72705;53.346;10.248;2023-12-04T11:44:12;47.95;;;21.27;;
82930;SDS011;72705;53.346;10.248;2023-12-04T11:46:54;49.22;;;18.92;;
82930;SDS011;72705;53.346;10.248;2023-12-04T11:49:28;43.17;;;17.05;;
82930;SDS011;72705;53.346;10.248;2023-12-04T11:51:58;51.85;;;20.20;;
82930;SDS011;72705;53.346;10.248;2023-12-04T11:54:26;45.55;;;17.42;;
82930;SDS011;72705;53.346;10.248;2023-12-04T11:59:37;49.17;;;16.65;;
82930;SDS011;72705;53.346;10.248;2023-12-04T12:02:03;48.67;;;16.92;;
82930;SDS011;72705;53.346;10.248;2023-12-04T12:04:39;47.95;;;18.13;;
82930;SDS011;72705;53.346;10.248;2023-12-04T12:07:05;48.53;;;18.15;;
82930;SDS011;72705;53.346;10.248;2023-12-04T12:09:37;48.28;;;18.80;;
82930;SDS011;72705;53.346;10.248;2023-12-04T12:12:15;53.67;;;17.23;;
82930;SDS011;72705;53.346;10.248;2023-12-04T12:14:40;50.10;;;19.13;;
82930;SDS011;72705;53.346;10.248;2023-12-04T12:17:06;58.67;;;21.77;;
82930;SDS011;72705;53.346;10.248;2023-12-04T12:19:34;44.53;;;18.67;;
82930;SDS011;72705;53.346;10.248;2023-12-04T12:22:00;43.03;;;16.15;;
82930;SDS011;72705;53.346;10.248;2023-12-04T12:24:31;44.63;;;17.63;;
82930;SDS011;72705;53.346;10.248;2023-12-04T12:26:57;48.30;;;19.73;;
82930;SDS011;72705;53.346;10.248;2023-12-04T12:29:27;45.45;;;17.77;;
82930;SDS011;72705;53.346;10.248;2023-12-04T12:32:05;44.13;;;18.05;;
82930;SDS011;72705;53.346;10.248;2023-12-04T12:34:31;49.60;;;17.52;;
82930;SDS011;72705;53.346;10.248;2023-12-04T12:37:01;39.80;;;17.50;;
82930;SDS011;72705;53.346;10.248;2023-12-04T12:39:30;39.80;;;15.75;;
82930;SDS011;72705;53.346;10.248;2023-12-04T12:42:06;40.42;;;15.98;;
82930;SDS011;72705;53.346;10.248;2023-12-04T12:44:37;43.75;;;16.27;;
82930;SDS011;72705;53.346;10.248;2023-12-04T12:47:06;47.25;;;16.33;;
82930;SDS011;72705;53.346;10.248;2023-12-04T12:49:35;40.38;;;14.73;;
82930;SDS011;72705;53.346;10.248;2023-12-04T12:52:20;40.13;;;15.38;;
82930;SDS011;72705;53.346;10.248;2023-12-04T12:54:52;52.63;;;17.73;;
82930;SDS011;72705;53.346;10.248;2023-12-04T12:57:17;42.85;;;17.58;;
82930;SDS011;72705;53.346;10.248;2023-12-04T12:59:43;42.42;;;16.83;;
82930;SDS011;72705;53.346;10.248;2023-12-04T13:02:09;48.92;;;16.67;;
82930;SDS011;72705;53.346;10.248;2023-12-04T13:04:41;44.83;;;17.10;;
82930;SDS011;72705;53.346;10.248;2023-12-04T13:07:08;47.60;;;18.23;;
82930;SDS011;72705;53.346;10.248;2023-12-04T13:09:34;40.55;;;16.58;;
82930;SDS011;72705;53.346;10.248;2023-12-04T13:12:04;48.08;;;18.13;;
82930;SDS011;72705;53.346;10.248;2023-12-04T13:14:31;50.28;;;19.40;;
82930;SDS011;72705;53.346;10.248;2023-12-04T13:16:58;44.70;;;19.55;;
82930;SDS011;72705;53.346;10.248;2023-12-04T13:22:01;49.85;;;16.90;;
82930;SDS011;72705;53.346;10.248;2023-12-04T13:24:32;46.40;;;17.33;;
82930;SDS011;72705;53.346;10.248;2023-12-04T13:29:34;44.28;;;17.88;;
82930;SDS011;72705;53.346;10.248;2023-12-04T13:31:59;52.72;;;19.02;;
82930;SDS011;72705;53.346;10.248;2023-12-04T13:34:29;43.38;;;17.80;;
82930;SDS011;72705;53.346;10.248;2023-12-04T13:37:01;51.42;;;19.65;;
82930;SDS011;72705;53.346;10.248;2023-12-04T13:39:26;47.00;;;18.75;;
82930;SDS011;72705;53.346;10.248;2023-12-04T13:42:01;51.50;;;17.95;;
82930;SDS011;72705;53.346;10.248;2023-12-04T13:44:46;51.50;;;18.52;;
82930;SDS011;72705;53.346;10.248;2023-12-04T13:47:12;45.05;;;17.15;;
82930;SDS011;72705;53.346;10.248;2023-12-04T13:49:42;52.63;;;19.65;;
82930;SDS011;72705;53.346;10.248;2023-12-04T13:52:11;53.90;;;17.85;;
82930;SDS011;72705;53.346;10.248;2023-12-04T13:54:46;55.15;;;19.17;;
82930;SDS011;72705;53.346;10.248;2023-12-04T13:57:14;53.85;;;20.17;;
82930;SDS011;72705;53.346;10.248;2023-12-04T13:59:52;51.33;;;19.48;;
82930;SDS011;72705;53.346;10.248;2023-12-04T14:02:22;50.85;;;19.90;;
82930;SDS011;72705;53.346;10.248;2023-12-04T14:04:48;51.65;;;18.45;;
82930;SDS011;72705;53.346;10.248;2023-12-04T14:07:14;48.87;;;18.50;;
82930;SDS011;72705;53.346;10.248;2023-12-04T14:09:54;31.33;;;13.63;;
82930;SDS011;72705;53.346;10.248;2023-12-04T14:12:19;41.85;;;16.92;;
82930;SDS011;72705;53.346;10.248;2023-12-04T14:14:45;48.20;;;17.27;;
82930;SDS011;72705;53.346;10.248;2023-12-04T14:17:15;34.88;;;13.00;;
82930;SDS011;72705;53.346;10.248;2023-12-04T14:22:13;44.85;;;17.27;;
82930;SDS011;72705;53.346;10.248;2023-12-04T14:24:38;46.22;;;16.83;;
82930;SDS011;72705;53.346;10.248;2023-12-04T14:27:07;41.47;;;16.50;;
82930;SDS011;72705;53.346;10.248;2023-12-04T14:29:36;43.80;;;14.70;;
82930;SDS011;72705;53.346;10.248;2023-12-04T14:34:29;43.83;;;19.05;;
82930;SDS011;72705;53.346;10.248;2023-12-04T14:42:10;38.72;;;14.05;;
82930;SDS011;72705;53.346;10.248;2023-12-04T14:44:36;39.28;;;14.77;;
82930;SDS011;72705;53.346;10.248;2023-12-04T14:47:03;39.13;;;16.52;;
82930;SDS011;72705;53.346;10.248;2023-12-04T14:49:29;39.50;;;15.80;;
82930;SDS011;72705;53.346;10.248;2023-12-04T14:51:56;33.03;;;14.18;;